Terminal Aerodrome Forecast
Issued by NWS

Home | Current Version | Previous Version | Text Only | Print | Product List | Glossary On
Versions: 1 2 3 4 5 6 7 8 9 10 11 12 13 14 15 16 17 18 19 20 21
000
FTUS43 KICT 040520
TAFHUT
TAF
KHUT 040520Z 0406/0506 18013KT P6SM OVC300
     FM040800 18007KT P6SM SCT150 OVC250
     FM041400 18013KT P6SM OVC150
     FM041800 19017G22KT P6SM OVC150=

USA.gov is the U.S. government's official web portal to all federal, state and local government web resources and services.